createdAt,value
2017-07-26T00:01:56.823Z,86.50
2017-07-26T00:04:25.995Z,86.30
2017-07-26T00:06:54.956Z,86.20
2017-07-26T00:09:24.090Z,86.40
2017-07-26T00:11:54.109Z,86.60
2017-07-26T00:14:23.094Z,86.40
2017-07-26T00:16:52.062Z,86.40
2017-07-26T00:19:21.051Z,86.20
2017-07-26T00:21:50.022Z,86.00
2017-07-26T00:24:19.014Z,86.40
2017-07-26T00:26:47.975Z,86.70
2017-07-26T00:29:16.945Z,86.60
2017-07-26T00:31:46.232Z,86.50
2017-07-26T00:34:15.942Z,86.40
2017-07-26T00:36:45.671Z,86.90
2017-07-26T00:39:15.059Z,86.90
2017-07-26T00:41:44.867Z,86.50
2017-07-26T00:44:13.836Z,86.50
2017-07-26T00:46:42.802Z,86.00
2017-07-26T00:49:11.768Z,86.10
2017-07-26T00:51:40.746Z,86.60
2017-07-26T00:54:09.719Z,86.50
2017-07-26T00:56:38.698Z,85.80
2017-07-26T00:59:07.669Z,86.50
2017-07-26T01:01:36.649Z,86.60
2017-07-26T01:04:06.376Z,86.80
2017-07-26T01:06:35.556Z,86.50
2017-07-26T01:09:04.581Z,86.70
2017-07-26T01:11:33.549Z,86.80
2017-07-26T01:14:02.529Z,87.00
2017-07-26T01:16:31.488Z,87.00
2017-07-26T01:19:00.476Z,87.30
2017-07-26T01:21:29.555Z,87.30
2017-07-26T01:23:59.374Z,87.30
2017-07-26T01:26:29.105Z,86.70
2017-07-26T01:28:58.092Z,86.70
2017-07-26T01:31:27.256Z,86.60
2017-07-26T01:33:56.209Z,86.60
2017-07-26T01:36:25.201Z,86.60
2017-07-26T01:38:54.558Z,86.60
2017-07-26T01:41:23.533Z,86.20
2017-07-26T01:43:52.537Z,86.20
2017-07-26T01:46:22.374Z,86.30
2017-07-26T01:48:51.461Z,86.30
2017-07-26T01:51:20.443Z,86.60
2017-07-26T01:53:50.172Z,85.50
2017-07-26T01:56:19.160Z,85.90
2017-07-26T01:58:48.140Z,86.00
2017-07-26T02:01:17.112Z,86.00
2017-07-26T02:03:46.061Z,85.80
2017-07-26T02:06:15.072Z,86.30
2017-07-26T02:08:44.028Z,86.60
2017-07-26T02:11:13.025Z,86.40
2017-07-26T02:13:42.089Z,86.70
2017-07-26T02:16:11.828Z,86.30
2017-07-26T02:18:41.429Z,86.00
2017-07-26T02:21:10.497Z,85.90
2017-07-26T02:23:40.969Z,85.80
2017-07-26T02:26:09.968Z,85.80
2017-07-26T02:28:38.964Z,86.40
2017-07-26T02:31:08.744Z,86.00
2017-07-26T02:33:37.731Z,86.40
2017-07-26T02:36:06.691Z,87.00
2017-07-26T02:38:35.958Z,86.90
2017-07-26T02:41:04.930Z,88.30
2017-07-26T02:43:33.908Z,86.90
2017-07-26T02:46:02.884Z,87.30
2017-07-26T02:48:32.619Z,88.60
2017-07-26T02:51:03.522Z,88.10
2017-07-26T02:53:32.499Z,88.10
2017-07-26T02:56:02.250Z,87.40
2017-07-26T02:58:31.223Z,87.40
2017-07-26T03:01:00.182Z,87.80
2017-07-26T03:03:29.166Z,87.40
2017-07-26T03:05:58.116Z,87.10
2017-07-26T03:08:27.093Z,86.80
2017-07-26T03:10:56.582Z,86.80
2017-07-26T03:13:25.547Z,88.00
2017-07-26T03:15:54.569Z,88.20
2017-07-26T03:18:23.536Z,88.40
2017-07-26T03:20:52.490Z,88.70
2017-07-26T03:23:21.457Z,88.90
2017-07-26T03:25:50.968Z,88.90
2017-07-26T03:28:19.961Z,88.70
2017-07-26T03:30:48.909Z,88.30
2017-07-26T03:33:17.923Z,88.40
2017-07-26T03:35:47.659Z,88.90
2017-07-26T03:38:16.660Z,88.50
2017-07-26T03:40:46.080Z,88.40
2017-07-26T03:43:15.052Z,88.20
2017-07-26T03:45:44.215Z,87.80
2017-07-26T03:48:17.014Z,88.40
2017-07-26T03:50:49.011Z,88.90
2017-07-26T03:53:17.987Z,88.30
2017-07-26T03:55:46.968Z,88.10
2017-07-26T03:58:15.936Z,88.20
2017-07-26T04:00:45.179Z,87.90
2017-07-26T04:03:14.146Z,87.80
2017-07-26T04:05:43.218Z,87.70
2017-07-26T04:08:12.421Z,88.10
2017-07-26T04:10:41.764Z,88.60
2017-07-26T04:13:10.759Z,88.70
2017-07-26T04:15:39.735Z,88.60
2017-07-26T04:18:08.765Z,88.70
2017-07-26T04:20:37.748Z,88.40
2017-07-26T04:23:06.956Z,87.80
2017-07-26T04:25:36.425Z,88.30
2017-07-26T04:28:05.383Z,88.50
2017-07-26T04:30:34.369Z,88.60
2017-07-26T04:33:04.424Z,88.30
2017-07-26T04:35:33.385Z,88.20
2017-07-26T04:38:02.541Z,88.00
2017-07-26T04:40:32.475Z,87.40
2017-07-26T04:43:01.448Z,87.40
2017-07-26T04:45:30.404Z,87.60
2017-07-26T04:47:59.408Z,88.30
2017-07-26T04:50:28.385Z,88.40
2017-07-26T04:52:57.479Z,87.80
2017-07-26T04:55:26.967Z,87.30
2017-07-26T04:57:56.168Z,87.40
2017-07-26T05:00:25.152Z,87.30
2017-07-26T05:02:54.144Z,87.90
2017-07-26T05:05:23.536Z,88.40
2017-07-26T05:07:52.503Z,87.90
2017-07-26T05:10:21.527Z,87.60
2017-07-26T05:12:51.242Z,87.00
2017-07-26T05:15:20.239Z,86.90
2017-07-26T05:17:49.405Z,87.60
2017-07-26T05:20:19.129Z,87.10
2017-07-26T05:22:49.363Z,87.40
2017-07-26T05:25:18.398Z,87.30
2017-07-26T05:27:47.396Z,87.30
2017-07-26T05:30:16.396Z,86.50
2017-07-26T05:32:45.424Z,87.00
2017-07-26T05:35:14.390Z,86.50
2017-07-26T05:37:43.380Z,85.70
2017-07-26T05:40:12.352Z,85.80
2017-07-26T05:42:41.296Z,86.20
2017-07-26T05:45:11.097Z,86.90
2017-07-26T05:47:40.034Z,86.90
2017-07-26T05:50:09.023Z,85.50
2017-07-26T05:52:37.993Z,85.70
2017-07-26T05:55:06.959Z,84.70
2017-07-26T05:57:36.704Z,84.70
2017-07-26T06:00:05.641Z,84.70
2017-07-26T06:02:34.624Z,85.20
2017-07-26T06:05:03.958Z,84.80
2017-07-26T06:07:33.700Z,84.10
2017-07-26T06:10:02.666Z,84.10
2017-07-26T06:12:31.638Z,83.60
2017-07-26T06:15:00.584Z,83.70
2017-07-26T06:17:29.559Z,82.60
2017-07-26T06:19:58.584Z,83.00
2017-07-26T06:22:27.623Z,83.00
2017-07-26T06:24:56.602Z,82.60
2017-07-26T06:27:25.579Z,83.10
2017-07-26T06:29:56.361Z,83.70
2017-07-26T06:32:25.328Z,83.20
2017-07-26T06:34:55.076Z,82.70
2017-07-26T06:37:24.023Z,82.70
2017-07-26T06:39:52.981Z,81.80
2017-07-26T06:42:21.955Z,82.40
2017-07-26T06:44:51.009Z,82.90
2017-07-26T06:47:20.757Z,82.00
2017-07-26T06:49:49.825Z,81.90
2017-07-26T06:52:19.586Z,80.90
2017-07-26T06:54:48.553Z,80.70
2017-07-26T06:57:17.524Z,80.30
2017-07-26T06:59:46.494Z,80.50
2017-07-26T07:02:15.465Z,80.50
2017-07-26T07:04:44.409Z,80.00
2017-07-26T07:07:13.372Z,80.50
2017-07-26T07:09:43.099Z,81.10
2017-07-26T07:12:12.909Z,79.00
2017-07-26T07:14:42.235Z,79.10
2017-07-26T07:17:11.221Z,78.80
2017-07-26T07:19:40.210Z,79.30
2017-07-26T07:22:09.197Z,80.50
2017-07-26T07:24:38.260Z,78.10
2017-07-26T07:27:07.979Z,77.60
2017-07-26T07:29:37.714Z,77.80
2017-07-26T07:32:06.660Z,77.80
2017-07-26T07:34:36.607Z,76.30
2017-07-26T07:37:05.561Z,76.00
2017-07-26T07:39:35.719Z,75.90
2017-07-26T07:42:04.886Z,75.80
2017-07-26T07:44:34.632Z,73.30
2017-07-26T07:47:03.596Z,73.40
2017-07-26T07:49:32.735Z,74.00
2017-07-26T07:52:01.692Z,73.80
2017-07-26T07:54:31.428Z,72.70
2017-07-26T07:57:00.393Z,72.70
2017-07-26T07:59:30.142Z,68.90
2017-07-26T08:01:59.089Z,68.80
2017-07-26T08:04:28.033Z,69.00
2017-07-26T08:06:57.057Z,68.10
2017-07-26T08:09:26.022Z,68.00
2017-07-26T08:11:54.992Z,69.60
2017-07-26T08:14:23.934Z,70.30
2017-07-26T08:16:53.710Z,72.20
2017-07-26T08:19:22.878Z,72.20
2017-07-26T08:21:51.842Z,69.50
2017-07-26T08:24:21.554Z,70.90
2017-07-26T08:26:50.531Z,70.80
2017-07-26T08:29:19.485Z,67.70
2017-07-26T08:31:48.440Z,67.10
2017-07-26T08:34:17.393Z,68.30
2017-07-26T08:36:46.350Z,64.80
2017-07-26T08:39:15.318Z,64.50
2017-07-26T08:41:44.272Z,64.00
2017-07-26T08:44:13.268Z,66.00
2017-07-26T08:46:43.000Z,61.70
2017-07-26T08:49:12.728Z,64.90
2017-07-26T08:51:41.834Z,65.00
2017-07-26T08:54:10.784Z,66.40
2017-07-26T08:56:40.862Z,62.50
2017-07-26T08:59:10.411Z,61.80
2017-07-26T09:01:39.416Z,60.60
2017-07-26T09:04:08.402Z,63.30
2017-07-26T09:06:37.431Z,58.30
2017-07-26T09:09:06.386Z,59.80
2017-07-26T09:11:36.128Z,59.00
2017-07-26T09:14:05.063Z,59.00
2017-07-26T09:16:34.012Z,57.10
2017-07-26T09:19:02.977Z,56.20
2017-07-26T09:21:31.943Z,57.00
2017-07-26T09:24:00.942Z,56.90
2017-07-26T09:26:30.660Z,57.20
2017-07-26T09:29:00.399Z,56.20
2017-07-26T09:31:29.349Z,56.20
2017-07-26T09:33:58.319Z,58.20
2017-07-26T09:36:27.276Z,57.20
2017-07-26T09:38:56.236Z,58.10
2017-07-26T09:41:25.208Z,55.20
2017-07-26T09:43:54.195Z,56.70
2017-07-26T09:46:23.159Z,57.60
2017-07-26T09:48:52.132Z,58.20
2017-07-26T09:51:21.110Z,55.10
2017-07-26T09:53:50.059Z,55.10
2017-07-26T09:56:19.029Z,56.90
2017-07-26T09:58:47.971Z,57.40
2017-07-26T10:01:16.940Z,57.20
2017-07-26T10:03:45.900Z,51.20
2017-07-26T10:06:14.880Z,51.60
2017-07-26T10:08:43.836Z,52.70
2017-07-26T10:11:12.808Z,52.40
2017-07-26T10:13:41.773Z,50.00
2017-07-26T10:16:10.732Z,50.10
2017-07-26T10:18:39.680Z,54.20
2017-07-26T10:21:08.800Z,50.90
2017-07-26T10:23:38.540Z,49.60
2017-07-26T10:26:07.496Z,49.60
2017-07-26T10:28:36.509Z,51.50
2017-07-26T10:31:05.484Z,52.20
2017-07-26T10:33:35.204Z,54.50
2017-07-26T10:36:04.180Z,54.50
2017-07-26T10:38:33.909Z,52.40
2017-07-26T10:41:02.908Z,52.40
2017-07-26T10:43:31.875Z,52.80
2017-07-26T10:46:00.844Z,55.60
2017-07-26T10:48:29.825Z,52.30
2017-07-26T10:50:58.768Z,51.20
2017-07-26T10:53:27.742Z,51.00
2017-07-26T10:55:57.492Z,50.80
2017-07-26T10:58:26.423Z,50.80
2017-07-26T11:00:55.576Z,50.30
2017-07-26T11:03:24.684Z,49.20
2017-07-26T11:05:53.649Z,48.90
2017-07-26T11:08:22.621Z,50.30
2017-07-26T11:10:51.601Z,49.20
2017-07-26T11:13:21.332Z,49.20
2017-07-26T11:15:51.417Z,49.10
2017-07-26T11:18:20.356Z,49.90
2017-07-26T11:20:49.300Z,47.40
2017-07-26T11:23:18.261Z,44.70
2017-07-26T11:25:47.215Z,49.40
2017-07-26T11:28:16.183Z,46.80
2017-07-26T11:30:45.228Z,46.60
2017-07-26T11:33:14.184Z,49.50
2017-07-26T11:35:43.926Z,45.00
2017-07-26T11:38:12.981Z,44.90
2017-07-26T11:40:41.969Z,41.60
2017-07-26T11:43:10.916Z,41.10
2017-07-26T11:45:39.881Z,42.10
2017-07-26T11:48:08.849Z,42.40
2017-07-26T11:50:38.564Z,43.30
2017-07-26T11:53:08.299Z,43.50
2017-07-26T11:55:37.265Z,43.40
2017-07-26T11:58:06.225Z,44.50
2017-07-26T12:00:35.213Z,47.90
2017-07-26T12:03:04.257Z,47.10
2017-07-26T12:05:33.462Z,46.70
2017-07-26T12:08:02.632Z,47.70
2017-07-26T12:10:32.385Z,49.50
2017-07-26T12:13:01.332Z,49.50
2017-07-26T12:15:30.308Z,51.10
2017-07-26T12:17:59.293Z,51.60
2017-07-26T12:20:28.231Z,52.10
2017-07-26T12:22:57.208Z,53.20
2017-07-26T12:25:26.169Z,51.70
2017-07-26T12:27:55.157Z,52.50
2017-07-26T12:30:24.113Z,52.20
2017-07-26T12:32:53.092Z,51.30
2017-07-26T12:35:22.054Z,51.90
2017-07-26T12:37:51.221Z,51.50
2017-07-26T12:40:20.187Z,49.20
2017-07-26T12:42:49.577Z,50.10
2017-07-26T12:45:18.586Z,51.60
2017-07-26T12:47:47.614Z,49.90
2017-07-26T12:50:16.562Z,47.60
2017-07-26T12:52:45.609Z,48.10
2017-07-26T12:55:14.567Z,48.90
2017-07-26T12:57:43.509Z,43.90
2017-07-26T13:00:12.476Z,44.30
2017-07-26T13:02:42.213Z,46.00
2017-07-26T13:05:11.202Z,46.00
2017-07-26T13:07:40.159Z,43.50
2017-07-26T13:10:09.160Z,40.50
2017-07-26T13:12:38.115Z,37.90
2017-07-26T13:15:07.086Z,38.60
2017-07-26T13:17:36.036Z,35.20
2017-07-26T13:20:05.278Z,31.50
2017-07-26T13:22:34.788Z,32.30
2017-07-26T13:25:03.737Z,31.70
2017-07-26T13:27:33.489Z,34.00
2017-07-26T13:30:02.478Z,33.90
2017-07-26T13:32:31.442Z,36.70
2017-07-26T13:35:00.730Z,39.30
2017-07-26T13:37:29.699Z,40.90
2017-07-26T13:39:58.662Z,35.40
2017-07-26T13:42:27.641Z,36.70
2017-07-26T13:44:57.722Z,35.30
2017-07-26T13:47:31.375Z,35.40
2017-07-26T13:50:18.646Z,32.80
2017-07-26T13:52:47.582Z,31.40
2017-07-26T13:55:16.631Z,33.70
2017-07-26T13:57:45.644Z,33.60
2017-07-26T14:00:14.600Z,33.70
2017-07-26T14:02:43.581Z,33.80
2017-07-26T14:05:12.545Z,38.50
2017-07-26T14:07:41.931Z,40.90
2017-07-26T14:10:10.949Z,41.10
2017-07-26T14:12:40.007Z,41.80
2017-07-26T14:15:08.981Z,38.10
2017-07-26T14:17:38.723Z,39.20
2017-07-26T14:20:30.341Z,39.80
2017-07-26T14:23:01.432Z,39.70
2017-07-26T14:25:30.397Z,36.50
2017-07-26T14:27:59.341Z,36.00
2017-07-26T14:30:29.123Z,35.70
2017-07-26T14:32:58.077Z,35.70
2017-07-26T14:38:02.331Z,39.20
2017-07-26T14:40:31.647Z,41.60
2017-07-26T14:43:00.623Z,41.90
2017-07-26T14:45:43.232Z,46.00
2017-07-26T14:48:12.226Z,45.40
2017-07-26T14:50:41.791Z,44.70
2017-07-26T14:53:10.758Z,46.40
2017-07-26T14:55:40.586Z,46.80
2017-07-26T14:58:09.586Z,44.70
2017-07-26T15:00:39.787Z,43.70
2017-07-26T15:03:09.681Z,43.70
2017-07-26T15:05:38.652Z,42.90
2017-07-26T15:08:07.645Z,45.70
2017-07-26T15:10:36.673Z,45.20
2017-07-26T15:13:05.633Z,46.50
2017-07-26T15:15:34.608Z,49.00
2017-07-26T15:18:03.613Z,47.10
2017-07-26T15:20:32.586Z,46.20
2017-07-26T15:23:01.535Z,46.70
2017-07-26T15:25:31.283Z,46.50
2017-07-26T15:28:00.255Z,46.10
2017-07-26T15:30:29.229Z,45.50
2017-07-26T15:32:59.198Z,47.30
2017-07-26T15:35:28.148Z,47.30
2017-07-26T15:37:57.124Z,45.60
2017-07-26T15:40:26.881Z,44.00
2017-07-26T15:42:55.868Z,44.40
2017-07-26T15:45:24.913Z,42.90
2017-07-26T15:47:53.866Z,43.10
2017-07-26T15:50:22.852Z,47.30
2017-07-26T15:52:51.811Z,45.90
2017-07-26T15:55:36.476Z,40.70
2017-07-26T15:58:13.332Z,40.50
2017-07-26T16:00:42.307Z,40.50
2017-07-26T16:03:11.258Z,40.60
2017-07-26T16:05:40.313Z,41.40
2017-07-26T16:08:09.318Z,44.40
2017-07-26T16:10:38.290Z,46.20
2017-07-26T16:13:07.995Z,43.40
2017-07-26T16:15:38.491Z,43.60
2017-07-26T16:18:09.866Z,43.50
2017-07-26T16:20:45.938Z,45.40
2017-07-26T16:23:15.238Z,47.10
2017-07-26T16:25:45.953Z,47.00
2017-07-26T16:28:15.135Z,46.90
2017-07-26T16:30:44.112Z,46.20
2017-07-26T16:33:13.107Z,47.60
2017-07-26T16:35:42.228Z,52.90
2017-07-26T16:38:11.287Z,48.40
2017-07-26T16:40:40.236Z,50.00
2017-07-26T16:43:09.963Z,51.80
2017-07-26T16:45:38.936Z,51.70
2017-07-26T16:48:08.747Z,51.30
2017-07-26T16:50:37.712Z,51.20
2017-07-26T16:53:06.673Z,50.90
2017-07-26T16:55:35.645Z,48.20
2017-07-26T16:58:04.619Z,49.10
2017-07-26T17:00:34.426Z,48.10
2017-07-26T17:03:03.389Z,47.90
2017-07-26T17:05:32.356Z,45.60
2017-07-26T17:08:01.347Z,47.40
2017-07-26T17:10:30.355Z,46.40
2017-07-26T17:12:59.300Z,47.50
2017-07-26T17:15:28.261Z,46.40
2017-07-26T17:17:57.518Z,48.10
2017-07-26T17:20:26.514Z,48.00
2017-07-26T17:22:55.455Z,48.50
2017-07-26T17:25:25.328Z,47.80
2017-07-26T17:27:54.286Z,47.80
2017-07-26T17:30:23.226Z,49.30
2017-07-26T17:32:52.201Z,47.50
2017-07-26T17:35:21.159Z,48.10
2017-07-26T17:37:50.122Z,49.50
2017-07-26T17:40:19.937Z,50.30
2017-07-26T17:42:49.021Z,50.10
2017-07-26T17:45:17.974Z,50.50
2017-07-26T17:47:46.949Z,48.70
2017-07-26T17:50:15.913Z,50.80
2017-07-26T17:52:45.623Z,50.50
2017-07-26T17:55:14.623Z,50.50
2017-07-26T17:57:43.585Z,51.70
2017-07-26T18:00:12.539Z,52.40
2017-07-26T18:02:41.587Z,53.10
2017-07-26T18:05:11.446Z,52.60
2017-07-26T18:07:40.423Z,52.50
2017-07-26T18:10:09.689Z,52.70
2017-07-26T18:12:38.692Z,51.30
2017-07-26T18:15:07.652Z,53.10
2017-07-26T18:17:36.624Z,51.40
2017-07-26T18:20:05.591Z,52.80
2017-07-26T18:22:36.921Z,56.50
2017-07-26T18:25:06.945Z,53.80
2017-07-26T18:27:35.891Z,56.00
2017-07-26T18:30:04.874Z,55.80
2017-07-26T18:32:35.032Z,53.90
2017-07-26T18:35:04.836Z,55.50
2017-07-26T18:37:33.773Z,55.50
2017-07-26T18:40:02.736Z,55.20
2017-07-26T18:42:31.773Z,57.50
2017-07-26T18:45:02.246Z,58.90
2017-07-26T18:47:31.215Z,59.50
2017-07-26T18:50:00.193Z,62.70
2017-07-26T18:52:29.132Z,63.00
2017-07-26T18:54:58.060Z,63.60
2017-07-26T18:57:27.022Z,64.60
2017-07-26T18:59:55.973Z,64.40
2017-07-26T19:02:24.971Z,66.80
2017-07-26T19:04:54.549Z,66.20
2017-07-26T19:07:23.678Z,66.30
2017-07-26T19:09:53.202Z,65.50
2017-07-26T19:12:23.493Z,65.20
2017-07-26T19:14:52.905Z,64.70
2017-07-26T19:17:22.644Z,66.50
2017-07-26T19:19:51.608Z,66.40
2017-07-26T19:22:20.704Z,66.80
2017-07-26T19:24:52.329Z,67.50
2017-07-26T19:27:22.186Z,67.80
2017-07-26T19:29:51.138Z,67.70
2017-07-26T19:32:20.243Z,69.10
2017-07-26T19:34:49.190Z,69.40
2017-07-26T19:37:18.132Z,69.70
2017-07-26T19:39:47.885Z,69.80
2017-07-26T19:42:16.854Z,69.80
2017-07-26T19:44:46.652Z,71.80
2017-07-26T19:47:16.407Z,72.00
2017-07-26T19:49:45.351Z,72.00
2017-07-26T19:52:14.322Z,72.20
2017-07-26T19:54:44.900Z,73.70
2017-07-26T19:57:13.879Z,73.60
2017-07-26T19:59:42.854Z,73.50
2017-07-26T20:02:12.058Z,73.30
2017-07-26T20:04:41.008Z,73.90
2017-07-26T20:07:20.348Z,74.50
2017-07-26T20:09:49.314Z,74.70
2017-07-26T20:12:18.305Z,74.30
2017-07-26T20:14:47.256Z,74.70
2017-07-26T20:17:18.030Z,74.60
2017-07-26T20:19:47.032Z,74.40
2017-07-26T20:22:16.064Z,74.80
2017-07-26T20:24:46.349Z,74.90
2017-07-26T20:27:15.301Z,74.90
2017-07-26T20:29:45.042Z,74.40
2017-07-26T20:32:14.002Z,74.40
2017-07-26T20:34:43.744Z,73.70
2017-07-26T20:37:12.772Z,73.60
2017-07-26T20:39:41.750Z,74.50
2017-07-26T20:42:10.707Z,74.20
2017-07-26T20:44:39.676Z,75.20
2017-07-26T20:47:08.768Z,75.30
2017-07-26T20:49:37.695Z,75.60
2017-07-26T20:52:06.664Z,75.30
2017-07-26T20:54:35.640Z,74.30
2017-07-26T20:57:04.655Z,74.20
2017-07-26T20:59:34.566Z,74.70
2017-07-26T21:02:04.504Z,74.60
2017-07-26T21:04:33.482Z,74.60
2017-07-26T21:07:02.548Z,74.50
2017-07-26T21:09:31.571Z,74.50
2017-07-26T21:12:00.545Z,74.40
2017-07-26T21:14:29.496Z,74.40
2017-07-26T21:16:58.477Z,75.10
2017-07-26T21:19:28.676Z,75.40
2017-07-26T21:21:57.662Z,75.40
2017-07-26T21:24:26.613Z,75.40
2017-07-26T21:26:55.795Z,75.50
2017-07-26T21:29:24.749Z,75.80
2017-07-26T21:31:53.704Z,75.80
2017-07-26T21:34:23.450Z,76.10
2017-07-26T21:36:52.475Z,76.00
2017-07-26T21:39:21.448Z,75.40
2017-07-26T21:41:50.404Z,74.70
2017-07-26T21:44:20.172Z,75.40
2017-07-26T21:46:49.100Z,75.30
2017-07-26T21:49:18.058Z,75.30
2017-07-26T21:51:47.173Z,74.60
2017-07-26T21:54:16.135Z,74.90
2017-07-26T21:56:45.072Z,76.00
2017-07-26T21:59:14.078Z,76.10
2017-07-26T22:01:43.042Z,75.50
2017-07-26T22:04:11.986Z,75.10
2017-07-26T22:06:40.961Z,74.40
2017-07-26T22:09:09.932Z,74.20
2017-07-26T22:11:38.889Z,74.50
2017-07-26T22:14:07.898Z,75.10
2017-07-26T22:16:36.874Z,75.60
2017-07-26T22:19:05.870Z,76.40
2017-07-26T22:21:35.119Z,76.40
2017-07-26T22:24:04.109Z,76.40
2017-07-26T22:26:33.168Z,76.80
2017-07-26T22:29:02.106Z,76.80
2017-07-26T22:31:31.131Z,76.70
2017-07-26T22:34:01.681Z,76.70
2017-07-26T22:36:30.664Z,76.60
2017-07-26T22:39:00.836Z,76.80
2017-07-26T22:41:29.810Z,76.60
2017-07-26T22:43:58.804Z,76.10
2017-07-26T22:46:27.739Z,76.20
2017-07-26T22:48:56.721Z,76.10
2017-07-26T22:51:25.701Z,76.10
2017-07-26T22:53:54.684Z,76.00
2017-07-26T22:56:23.626Z,76.10
2017-07-26T22:58:52.602Z,76.50
2017-07-26T23:01:21.567Z,76.30
2017-07-26T23:03:50.531Z,76.30
2017-07-26T23:06:19.494Z,75.90
2017-07-26T23:08:48.435Z,76.00
2017-07-26T23:11:17.411Z,76.10
2017-07-26T23:13:46.604Z,76.20
2017-07-26T23:16:15.564Z,76.20
2017-07-26T23:18:45.386Z,76.10
2017-07-26T23:21:14.359Z,76.00
2017-07-26T23:23:43.333Z,75.40
2017-07-26T23:26:12.292Z,75.70
2017-07-26T23:28:41.280Z,74.50
2017-07-26T23:31:10.273Z,75.70
2017-07-26T23:33:39.807Z,75.60
2017-07-26T23:36:08.805Z,75.10
2017-07-26T23:38:37.937Z,76.40
2017-07-26T23:41:06.926Z,74.30
2017-07-26T23:43:36.674Z,74.00
2017-07-26T23:46:06.893Z,74.00
2017-07-26T23:48:35.851Z,72.80
2017-07-26T23:51:04.809Z,73.40
2017-07-26T23:53:33.788Z,74.50
2017-07-26T23:56:02.785Z,72.30
2017-07-26T23:58:32.408Z,74.30
